sensor_id;sensor_type;location;lat;lon;timestamp;P1;durP1;ratioP1;P2;durP2;ratioP2
21297;SDS011;10808;48.010;11.326;2022-09-17T00:00:39;5.35;;;4.43;;
21297;SDS011;10808;48.010;11.326;2022-09-17T00:03:06;7.40;;;4.70;;
21297;SDS011;10808;48.010;11.326;2022-09-17T00:05:34;6.60;;;4.30;;
21297;SDS011;10808;48.010;11.326;2022-09-17T00:08:05;7.38;;;4.82;;
21297;SDS011;10808;48.010;11.326;2022-09-17T00:10:34;6.78;;;4.88;;
21297;SDS011;10808;48.010;11.326;2022-09-17T00:13:04;7.05;;;5.20;;
21297;SDS011;10808;48.010;11.326;2022-09-17T00:15:31;5.10;;;4.35;;
21297;SDS011;10808;48.010;11.326;2022-09-17T00:17:57;5.20;;;4.30;;
21297;SDS011;10808;48.010;11.326;2022-09-17T00:20:24;6.77;;;4.50;;
21297;SDS011;10808;48.010;11.326;2022-09-17T00:22:51;6.85;;;4.43;;
21297;SDS011;10808;48.010;11.326;2022-09-17T00:25:18;9.70;;;4.35;;
21297;SDS011;10808;48.010;11.326;2022-09-17T00:27:45;6.30;;;4.40;;
21297;SDS011;10808;48.010;11.326;2022-09-17T00:30:11;6.57;;;4.22;;
21297;SDS011;10808;48.010;11.326;2022-09-17T00:32:38;6.93;;;4.80;;
21297;SDS011;10808;48.010;11.326;2022-09-17T00:35:05;5.82;;;4.40;;
21297;SDS011;10808;48.010;11.326;2022-09-17T00:37:31;5.43;;;4.20;;
21297;SDS011;10808;48.010;11.326;2022-09-17T00:39:57;5.22;;;3.65;;
21297;SDS011;10808;48.010;11.326;2022-09-17T00:42:24;4.50;;;3.63;;
21297;SDS011;10808;48.010;11.326;2022-09-17T00:44:52;4.23;;;3.67;;
21297;SDS011;10808;48.010;11.326;2022-09-17T00:47:24;5.22;;;3.80;;
21297;SDS011;10808;48.010;11.326;2022-09-17T00:49:56;6.22;;;3.63;;
21297;SDS011;10808;48.010;11.326;2022-09-17T00:52:34;6.53;;;3.42;;
21297;SDS011;10808;48.010;11.326;2022-09-17T00:55:06;4.32;;;3.38;;
21297;SDS011;10808;48.010;11.326;2022-09-17T00:57:38;5.18;;;3.35;;
21297;SDS011;10808;48.010;11.326;2022-09-17T01:00:05;5.57;;;3.30;;
21297;SDS011;10808;48.010;11.326;2022-09-17T01:02:34;5.70;;;3.28;;
21297;SDS011;10808;48.010;11.326;2022-09-17T01:05:00;5.18;;;3.47;;
21297;SDS011;10808;48.010;11.326;2022-09-17T01:07:31;4.40;;;3.45;;
21297;SDS011;10808;48.010;11.326;2022-09-17T01:18:24;5.55;;;3.25;;
21297;SDS011;10808;48.010;11.326;2022-09-17T01:21:06;4.30;;;2.90;;
21297;SDS011;10808;48.010;11.326;2022-09-17T01:30:09;4.90;;;2.63;;
21297;SDS011;10808;48.010;11.326;2022-09-17T01:32:43;3.90;;;2.97;;
21297;SDS011;10808;48.010;11.326;2022-09-17T01:35:18;4.00;;;3.03;;
21297;SDS011;10808;48.010;11.326;2022-09-17T01:38:14;3.92;;;3.10;;
21297;SDS011;10808;48.010;11.326;2022-09-17T01:41:08;4.72;;;2.80;;
21297;SDS011;10808;48.010;11.326;2022-09-17T01:44:06;4.18;;;3.10;;
21297;SDS011;10808;48.010;11.326;2022-09-17T01:46:51;5.47;;;3.53;;
21297;SDS011;10808;48.010;11.326;2022-09-17T01:49:22;4.55;;;3.55;;
21297;SDS011;10808;48.010;11.326;2022-09-17T01:51:50;5.80;;;3.03;;
21297;SDS011;10808;48.010;11.326;2022-09-17T01:54:19;4.20;;;3.17;;
21297;SDS011;10808;48.010;11.326;2022-09-17T01:59:28;3.65;;;2.85;;
21297;SDS011;10808;48.010;11.326;2022-09-17T02:02:10;4.97;;;3.17;;
21297;SDS011;10808;48.010;11.326;2022-09-17T02:04:45;4.72;;;3.03;;
21297;SDS011;10808;48.010;11.326;2022-09-17T02:07:19;4.13;;;3.00;;
21297;SDS011;10808;48.010;11.326;2022-09-17T02:09:50;4.55;;;3.40;;
21297;SDS011;10808;48.010;11.326;2022-09-17T02:12:23;4.93;;;3.58;;
21297;SDS011;10808;48.010;11.326;2022-09-17T02:14:57;4.85;;;3.58;;
21297;SDS011;10808;48.010;11.326;2022-09-17T02:17:34;4.88;;;3.72;;
21297;SDS011;10808;48.010;11.326;2022-09-17T02:20:04;5.77;;;3.50;;
21297;SDS011;10808;48.010;11.326;2022-09-17T02:25:03;4.13;;;3.42;;
21297;SDS011;10808;48.010;11.326;2022-09-17T02:30:22;5.05;;;3.25;;
21297;SDS011;10808;48.010;11.326;2022-09-17T02:32:48;4.83;;;3.53;;
21297;SDS011;10808;48.010;11.326;2022-09-17T02:35:15;4.05;;;3.35;;
21297;SDS011;10808;48.010;11.326;2022-09-17T02:37:42;5.50;;;3.50;;
21297;SDS011;10808;48.010;11.326;2022-09-17T02:40:12;4.80;;;3.87;;
21297;SDS011;10808;48.010;11.326;2022-09-17T02:42:56;6.72;;;4.10;;
21297;SDS011;10808;48.010;11.326;2022-09-17T02:45:43;5.97;;;4.38;;
21297;SDS011;10808;48.010;11.326;2022-09-17T02:48:53;6.78;;;4.68;;
21297;SDS011;10808;48.010;11.326;2022-09-17T02:51:43;6.85;;;4.85;;
21297;SDS011;10808;48.010;11.326;2022-09-17T02:56:56;3.70;;;3.10;;
21297;SDS011;10808;48.010;11.326;2022-09-17T02:59:25;2.50;;;2.30;;
21297;SDS011;10808;48.010;11.326;2022-09-17T03:04:43;5.60;;;3.30;;
21297;SDS011;10808;48.010;11.326;2022-09-17T03:07:12;4.03;;;3.53;;
21297;SDS011;10808;48.010;11.326;2022-09-17T03:09:38;5.95;;;3.72;;
21297;SDS011;10808;48.010;11.326;2022-09-17T03:12:06;5.45;;;3.72;;
21297;SDS011;10808;48.010;11.326;2022-09-17T03:14:32;4.47;;;3.60;;
21297;SDS011;10808;48.010;11.326;2022-09-17T03:16:58;6.78;;;4.50;;
21297;SDS011;10808;48.010;11.326;2022-09-17T03:19:25;4.97;;;4.25;;
21297;SDS011;10808;48.010;11.326;2022-09-17T03:21:52;5.43;;;2.80;;
21297;SDS011;10808;48.010;11.326;2022-09-17T03:24:19;3.38;;;2.40;;
21297;SDS011;10808;48.010;11.326;2022-09-17T03:26:45;3.63;;;2.25;;
21297;SDS011;10808;48.010;11.326;2022-09-17T03:29:14;3.95;;;2.95;;
21297;SDS011;10808;48.010;11.326;2022-09-17T03:31:40;3.55;;;3.03;;
21297;SDS011;10808;48.010;11.326;2022-09-17T03:34:07;5.30;;;3.25;;
21297;SDS011;10808;48.010;11.326;2022-09-17T03:36:33;4.15;;;3.42;;
21297;SDS011;10808;48.010;11.326;2022-09-17T03:38:59;4.93;;;4.10;;
21297;SDS011;10808;48.010;11.326;2022-09-17T03:41:26;5.28;;;4.43;;
21297;SDS011;10808;48.010;11.326;2022-09-17T03:43:52;6.30;;;4.25;;
21297;SDS011;10808;48.010;11.326;2022-09-17T03:46:18;6.28;;;4.55;;
21297;SDS011;10808;48.010;11.326;2022-09-17T03:48:45;5.20;;;4.70;;
21297;SDS011;10808;48.010;11.326;2022-09-17T03:51:11;5.00;;;4.50;;
21297;SDS011;10808;48.010;11.326;2022-09-17T03:53:37;5.63;;;4.80;;
21297;SDS011;10808;48.010;11.326;2022-09-17T03:56:04;6.10;;;5.10;;
21297;SDS011;10808;48.010;11.326;2022-09-17T03:58:32;6.90;;;4.80;;
21297;SDS011;10808;48.010;11.326;2022-09-17T04:00:58;8.37;;;5.23;;
21297;SDS011;10808;48.010;11.326;2022-09-17T04:03:25;7.63;;;4.90;;
21297;SDS011;10808;48.010;11.326;2022-09-17T04:05:53;6.78;;;4.82;;
21297;SDS011;10808;48.010;11.326;2022-09-17T04:08:20;5.13;;;4.50;;
21297;SDS011;10808;48.010;11.326;2022-09-17T04:10:46;7.28;;;4.90;;
21297;SDS011;10808;48.010;11.326;2022-09-17T04:13:13;5.22;;;4.50;;
21297;SDS011;10808;48.010;11.326;2022-09-17T04:15:41;5.78;;;4.60;;
21297;SDS011;10808;48.010;11.326;2022-09-17T04:18:07;6.93;;;4.70;;
21297;SDS011;10808;48.010;11.326;2022-09-17T04:20:33;7.18;;;4.70;;
21297;SDS011;10808;48.010;11.326;2022-09-17T04:22:59;6.30;;;4.50;;
21297;SDS011;10808;48.010;11.326;2022-09-17T04:25:25;5.75;;;4.70;;
21297;SDS011;10808;48.010;11.326;2022-09-17T04:27:51;5.80;;;4.45;;
21297;SDS011;10808;48.010;11.326;2022-09-17T04:30:18;5.20;;;4.65;;
21297;SDS011;10808;48.010;11.326;2022-09-17T04:32:44;7.70;;;4.70;;
21297;SDS011;10808;48.010;11.326;2022-09-17T04:35:11;5.63;;;4.60;;
21297;SDS011;10808;48.010;11.326;2022-09-17T04:37:37;6.25;;;4.70;;
21297;SDS011;10808;48.010;11.326;2022-09-17T04:40:04;6.93;;;4.43;;
21297;SDS011;10808;48.010;11.326;2022-09-17T04:42:31;5.00;;;4.50;;
21297;SDS011;10808;48.010;11.326;2022-09-17T04:44:57;5.40;;;4.55;;
21297;SDS011;10808;48.010;11.326;2022-09-17T04:47:24;7.15;;;5.05;;
21297;SDS011;10808;48.010;11.326;2022-09-17T04:49:50;5.97;;;4.70;;
21297;SDS011;10808;48.010;11.326;2022-09-17T04:52:17;7.90;;;4.38;;
21297;SDS011;10808;48.010;11.326;2022-09-17T04:54:43;6.85;;;4.55;;
21297;SDS011;10808;48.010;11.326;2022-09-17T04:57:09;6.57;;;4.30;;
21297;SDS011;10808;48.010;11.326;2022-09-17T04:59:35;8.18;;;4.57;;
21297;SDS011;10808;48.010;11.326;2022-09-17T05:02:03;6.35;;;4.35;;
21297;SDS011;10808;48.010;11.326;2022-09-17T05:04:29;4.82;;;4.10;;
21297;SDS011;10808;48.010;11.326;2022-09-17T05:06:56;8.10;;;4.00;;
21297;SDS011;10808;48.010;11.326;2022-09-17T05:09:22;7.03;;;4.05;;
21297;SDS011;10808;48.010;11.326;2022-09-17T05:11:48;5.50;;;4.30;;
21297;SDS011;10808;48.010;11.326;2022-09-17T05:14:14;6.00;;;4.30;;
21297;SDS011;10808;48.010;11.326;2022-09-17T05:16:40;7.43;;;4.28;;
21297;SDS011;10808;48.010;11.326;2022-09-17T05:19:06;8.82;;;4.50;;
21297;SDS011;10808;48.010;11.326;2022-09-17T05:21:32;5.65;;;4.53;;
21297;SDS011;10808;48.010;11.326;2022-09-17T05:23:58;6.32;;;4.00;;
21297;SDS011;10808;48.010;11.326;2022-09-17T05:26:26;6.47;;;4.47;;
21297;SDS011;10808;48.010;11.326;2022-09-17T05:28:52;10.10;;;4.13;;
21297;SDS011;10808;48.010;11.326;2022-09-17T05:31:18;5.40;;;3.83;;
21297;SDS011;10808;48.010;11.326;2022-09-17T05:33:44;8.20;;;4.10;;
21297;SDS011;10808;48.010;11.326;2022-09-17T05:36:10;5.93;;;3.92;;
21297;SDS011;10808;48.010;11.326;2022-09-17T05:38:37;6.57;;;4.03;;
21297;SDS011;10808;48.010;11.326;2022-09-17T05:41:06;8.27;;;3.80;;
21297;SDS011;10808;48.010;11.326;2022-09-17T05:43:32;6.27;;;3.87;;
21297;SDS011;10808;48.010;11.326;2022-09-17T05:46:00;6.72;;;3.67;;
21297;SDS011;10808;48.010;11.326;2022-09-17T05:48:27;4.28;;;3.80;;
21297;SDS011;10808;48.010;11.326;2022-09-17T05:50:54;7.22;;;3.92;;
21297;SDS011;10808;48.010;11.326;2022-09-17T05:53:20;6.57;;;3.72;;
21297;SDS011;10808;48.010;11.326;2022-09-17T05:55:46;6.22;;;4.00;;
21297;SDS011;10808;48.010;11.326;2022-09-17T05:58:13;5.60;;;3.90;;
21297;SDS011;10808;48.010;11.326;2022-09-17T06:00:44;7.40;;;3.97;;
21297;SDS011;10808;48.010;11.326;2022-09-17T06:03:12;5.78;;;3.80;;
21297;SDS011;10808;48.010;11.326;2022-09-17T06:05:39;4.78;;;3.70;;
21297;SDS011;10808;48.010;11.326;2022-09-17T06:08:05;6.95;;;3.70;;
21297;SDS011;10808;48.010;11.326;2022-09-17T06:10:34;6.90;;;4.10;;
21297;SDS011;10808;48.010;11.326;2022-09-17T06:13:02;4.97;;;3.80;;
21297;SDS011;10808;48.010;11.326;2022-09-17T06:15:28;4.93;;;3.42;;
21297;SDS011;10808;48.010;11.326;2022-09-17T06:17:54;5.25;;;3.30;;
21297;SDS011;10808;48.010;11.326;2022-09-17T06:20:21;6.53;;;3.40;;
21297;SDS011;10808;48.010;11.326;2022-09-17T06:22:47;5.22;;;3.30;;
21297;SDS011;10808;48.010;11.326;2022-09-17T06:25:13;4.53;;;2.70;;
21297;SDS011;10808;48.010;11.326;2022-09-17T06:27:39;4.15;;;2.60;;
21297;SDS011;10808;48.010;11.326;2022-09-17T06:30:06;3.25;;;2.40;;
21297;SDS011;10808;48.010;11.326;2022-09-17T06:32:32;3.28;;;2.47;;
21297;SDS011;10808;48.010;11.326;2022-09-17T06:34:58;4.90;;;3.88;;
21297;SDS011;10808;48.010;11.326;2022-09-17T06:37:26;5.60;;;2.80;;
21297;SDS011;10808;48.010;11.326;2022-09-17T06:39:53;6.60;;;3.20;;
21297;SDS011;10808;48.010;11.326;2022-09-17T06:42:19;3.90;;;2.60;;
21297;SDS011;10808;48.010;11.326;2022-09-17T06:44:46;3.10;;;2.65;;
21297;SDS011;10808;48.010;11.326;2022-09-17T06:47:13;5.22;;;2.90;;
21297;SDS011;10808;48.010;11.326;2022-09-17T06:49:39;4.93;;;3.15;;
21297;SDS011;10808;48.010;11.326;2022-09-17T06:52:05;4.93;;;2.40;;
21297;SDS011;10808;48.010;11.326;2022-09-17T06:54:31;4.55;;;2.10;;
21297;SDS011;10808;48.010;11.326;2022-09-17T06:56:58;2.90;;;2.13;;
21297;SDS011;10808;48.010;11.326;2022-09-17T06:59:24;3.53;;;2.20;;
21297;SDS011;10808;48.010;11.326;2022-09-17T07:01:51;3.58;;;2.30;;
21297;SDS011;10808;48.010;11.326;2022-09-17T07:04:17;3.03;;;2.17;;
21297;SDS011;10808;48.010;11.326;2022-09-17T07:06:43;4.10;;;2.00;;
21297;SDS011;10808;48.010;11.326;2022-09-17T07:09:11;4.82;;;2.35;;
21297;SDS011;10808;48.010;11.326;2022-09-17T07:11:38;4.97;;;2.50;;
21297;SDS011;10808;48.010;11.326;2022-09-17T07:14:04;4.10;;;2.40;;
21297;SDS011;10808;48.010;11.326;2022-09-17T07:16:31;4.82;;;3.33;;
21297;SDS011;10808;48.010;11.326;2022-09-17T07:19:00;6.22;;;3.55;;
21297;SDS011;10808;48.010;11.326;2022-09-17T07:21:28;7.30;;;4.18;;
21297;SDS011;10808;48.010;11.326;2022-09-17T07:23:54;5.10;;;3.70;;
21297;SDS011;10808;48.010;11.326;2022-09-17T07:26:21;6.85;;;4.07;;
21297;SDS011;10808;48.010;11.326;2022-09-17T07:28:47;7.05;;;3.78;;
21297;SDS011;10808;48.010;11.326;2022-09-17T07:31:13;7.60;;;4.10;;
21297;SDS011;10808;48.010;11.326;2022-09-17T07:33:39;8.77;;;3.90;;
21297;SDS011;10808;48.010;11.326;2022-09-17T07:36:06;6.57;;;4.10;;
21297;SDS011;10808;48.010;11.326;2022-09-17T07:38:35;7.47;;;3.92;;
21297;SDS011;10808;48.010;11.326;2022-09-17T07:41:02;5.50;;;3.58;;
21297;SDS011;10808;48.010;11.326;2022-09-17T07:43:30;5.78;;;3.70;;
21297;SDS011;10808;48.010;11.326;2022-09-17T07:45:58;7.43;;;3.40;;
21297;SDS011;10808;48.010;11.326;2022-09-17T07:48:25;7.20;;;3.15;;
21297;SDS011;10808;48.010;11.326;2022-09-17T07:50:52;7.40;;;3.10;;
21297;SDS011;10808;48.010;11.326;2022-09-17T07:53:19;8.85;;;3.25;;
21297;SDS011;10808;48.010;11.326;2022-09-17T07:55:53;8.93;;;2.90;;
21297;SDS011;10808;48.010;11.326;2022-09-17T07:58:21;6.55;;;2.60;;
21297;SDS011;10808;48.010;11.326;2022-09-17T08:00:48;6.03;;;3.07;;
21297;SDS011;10808;48.010;11.326;2022-09-17T08:03:15;6.35;;;2.60;;
21297;SDS011;10808;48.010;11.326;2022-09-17T08:05:41;9.27;;;2.88;;
21297;SDS011;10808;48.010;11.326;2022-09-17T08:08:07;7.68;;;2.30;;
21297;SDS011;10808;48.010;11.326;2022-09-17T08:10:35;5.63;;;1.83;;
21297;SDS011;10808;48.010;11.326;2022-09-17T08:13:01;3.97;;;1.90;;
21297;SDS011;10808;48.010;11.326;2022-09-17T08:15:27;6.38;;;2.28;;
21297;SDS011;10808;48.010;11.326;2022-09-17T08:17:53;5.03;;;2.28;;
21297;SDS011;10808;48.010;11.326;2022-09-17T08:20:19;5.85;;;2.45;;
21297;SDS011;10808;48.010;11.326;2022-09-17T08:22:46;10.23;;;3.05;;
21297;SDS011;10808;48.010;11.326;2022-09-17T08:25:12;7.72;;;2.40;;
21297;SDS011;10808;48.010;11.326;2022-09-17T08:27:38;7.07;;;2.20;;
21297;SDS011;10808;48.010;11.326;2022-09-17T08:30:07;5.43;;;2.10;;
21297;SDS011;10808;48.010;11.326;2022-09-17T08:32:33;6.88;;;2.10;;
21297;SDS011;10808;48.010;11.326;2022-09-17T08:34:59;7.00;;;2.25;;
21297;SDS011;10808;48.010;11.326;2022-09-17T08:37:29;5.60;;;2.00;;
21297;SDS011;10808;48.010;11.326;2022-09-17T08:39:55;8.20;;;2.53;;
21297;SDS011;10808;48.010;11.326;2022-09-17T08:44:55;4.93;;;1.80;;
21297;SDS011;10808;48.010;11.326;2022-09-17T08:47:25;5.22;;;2.00;;
21297;SDS011;10808;48.010;11.326;2022-09-17T08:50:02;4.70;;;1.80;;
21297;SDS011;10808;48.010;11.326;2022-09-17T08:52:48;3.60;;;1.58;;
21297;SDS011;10808;48.010;11.326;2022-09-17T09:01:23;6.35;;;1.70;;
21297;SDS011;10808;48.010;11.326;2022-09-17T09:04:18;3.75;;;1.50;;
21297;SDS011;10808;48.010;11.326;2022-09-17T09:06:48;4.93;;;1.70;;
21297;SDS011;10808;48.010;11.326;2022-09-17T09:09:18;4.38;;;2.42;;
21297;SDS011;10808;48.010;11.326;2022-09-17T09:11:51;6.10;;;2.47;;
21297;SDS011;10808;48.010;11.326;2022-09-17T09:15:14;5.07;;;1.80;;
21297;SDS011;10808;48.010;11.326;2022-09-17T09:17:17;5.33;;;2.00;;
21297;SDS011;10808;48.010;11.326;2022-09-17T09:19:46;6.70;;;1.92;;
21297;SDS011;10808;48.010;11.326;2022-09-17T09:27:46;4.00;;;1.40;;
21297;SDS011;10808;48.010;11.326;2022-09-17T09:30:13;7.75;;;1.90;;
21297;SDS011;10808;48.010;11.326;2022-09-17T09:35:52;5.05;;;1.60;;
21297;SDS011;10808;48.010;11.326;2022-09-17T09:40:53;5.43;;;1.73;;
21297;SDS011;10808;48.010;11.326;2022-09-17T09:49:42;6.35;;;1.67;;
21297;SDS011;10808;48.010;11.326;2022-09-17T09:55:24;6.15;;;1.70;;
21297;SDS011;10808;48.010;11.326;2022-09-17T09:58:44;4.32;;;1.38;;
21297;SDS011;10808;48.010;11.326;2022-09-17T10:00:53;6.05;;;1.58;;
21297;SDS011;10808;48.010;11.326;2022-09-17T10:05:57;10.70;;;1.75;;
21297;SDS011;10808;48.010;11.326;2022-09-17T10:08:24;2.47;;;1.40;;
21297;SDS011;10808;48.010;11.326;2022-09-17T10:10:55;5.95;;;1.85;;
21297;SDS011;10808;48.010;11.326;2022-09-17T10:13:22;4.32;;;1.48;;
21297;SDS011;10808;48.010;11.326;2022-09-17T10:15:48;5.45;;;1.45;;
21297;SDS011;10808;48.010;11.326;2022-09-17T10:20:52;6.45;;;1.92;;
21297;SDS011;10808;48.010;11.326;2022-09-17T10:23:28;5.68;;;1.80;;
21297;SDS011;10808;48.010;11.326;2022-09-17T10:25:58;5.65;;;2.00;;
21297;SDS011;10808;48.010;11.326;2022-09-17T10:28:32;6.13;;;1.65;;
21297;SDS011;10808;48.010;11.326;2022-09-17T10:30:59;4.97;;;1.70;;
21297;SDS011;10808;48.010;11.326;2022-09-17T10:33:30;4.50;;;1.48;;
21297;SDS011;10808;48.010;11.326;2022-09-17T10:36:01;4.90;;;1.73;;
21297;SDS011;10808;48.010;11.326;2022-09-17T10:41:11;6.18;;;2.05;;
21297;SDS011;10808;48.010;11.326;2022-09-17T10:43:39;4.05;;;1.55;;
21297;SDS011;10808;48.010;11.326;2022-09-17T10:46:07;5.53;;;1.52;;
21297;SDS011;10808;48.010;11.326;2022-09-17T10:48:37;6.38;;;1.77;;
21297;SDS011;10808;48.010;11.326;2022-09-17T10:51:10;6.35;;;1.60;;
21297;SDS011;10808;48.010;11.326;2022-09-17T10:53:57;3.85;;;1.42;;
21297;SDS011;10808;48.010;11.326;2022-09-17T10:56:36;6.60;;;1.83;;
21297;SDS011;10808;48.010;11.326;2022-09-17T11:02:32;5.80;;;1.80;;
21297;SDS011;10808;48.010;11.326;2022-09-17T11:05:33;6.10;;;2.13;;
21297;SDS011;10808;48.010;11.326;2022-09-17T11:08:49;7.05;;;1.70;;
21297;SDS011;10808;48.010;11.326;2022-09-17T11:11:31;2.85;;;1.23;;
21297;SDS011;10808;48.010;11.326;2022-09-17T11:14:14;4.28;;;1.50;;
21297;SDS011;10808;48.010;11.326;2022-09-17T11:17:24;4.97;;;1.52;;
21297;SDS011;10808;48.010;11.326;2022-09-17T11:20:01;5.07;;;1.98;;
21297;SDS011;10808;48.010;11.326;2022-09-17T11:36:23;2.70;;;1.48;;
21297;SDS011;10808;48.010;11.326;2022-09-17T11:38:53;4.53;;;2.10;;
21297;SDS011;10808;48.010;11.326;2022-09-17T11:41:26;4.30;;;2.10;;
21297;SDS011;10808;48.010;11.326;2022-09-17T11:46:40;4.30;;;1.60;;
21297;SDS011;10808;48.010;11.326;2022-09-17T11:49:21;4.00;;;1.67;;
21297;SDS011;10808;48.010;11.326;2022-09-17T11:52:00;3.72;;;1.50;;
21297;SDS011;10808;48.010;11.326;2022-09-17T11:57:18;3.17;;;1.50;;
21297;SDS011;10808;48.010;11.326;2022-09-17T11:59:49;3.30;;;1.50;;
21297;SDS011;10808;48.010;11.326;2022-09-17T12:05:11;4.28;;;1.42;;
21297;SDS011;10808;48.010;11.326;2022-09-17T12:13:39;3.08;;;1.70;;
21297;SDS011;10808;48.010;11.326;2022-09-17T12:16:26;4.85;;;1.35;;
21297;SDS011;10808;48.010;11.326;2022-09-17T12:19:04;1.73;;;1.00;;
21297;SDS011;10808;48.010;11.326;2022-09-17T12:21:41;2.60;;;1.20;;
21297;SDS011;10808;48.010;11.326;2022-09-17T12:38:03;2.30;;;1.30;;
21297;SDS011;10808;48.010;11.326;2022-09-17T12:46:26;3.80;;;1.55;;
21297;SDS011;10808;48.010;11.326;2022-09-17T12:49:14;4.75;;;1.80;;
21297;SDS011;10808;48.010;11.326;2022-09-17T12:51:54;3.78;;;1.35;;
21297;SDS011;10808;48.010;11.326;2022-09-17T12:54:52;2.92;;;1.20;;
21297;SDS011;10808;48.010;11.326;2022-09-17T13:00:10;2.03;;;1.27;;
21297;SDS011;10808;48.010;11.326;2022-09-17T13:08:10;1.93;;;1.17;;
21297;SDS011;10808;48.010;11.326;2022-09-17T13:11:11;3.17;;;1.35;;
21297;SDS011;10808;48.010;11.326;2022-09-17T13:13:45;2.22;;;1.00;;
21297;SDS011;10808;48.010;11.326;2022-09-17T13:22:03;2.45;;;1.20;;
21297;SDS011;10808;48.010;11.326;2022-09-17T13:24:37;2.90;;;1.30;;
21297;SDS011;10808;48.010;11.326;2022-09-17T13:27:04;2.38;;;1.67;;
21297;SDS011;10808;48.010;11.326;2022-09-17T13:37:36;4.57;;;1.65;;
21297;SDS011;10808;48.010;11.326;2022-09-17T13:40:27;2.25;;;1.10;;
21297;SDS011;10808;48.010;11.326;2022-09-17T13:42:55;3.72;;;1.38;;
21297;SDS011;10808;48.010;11.326;2022-09-17T13:45:28;3.33;;;1.45;;
21297;SDS011;10808;48.010;11.326;2022-09-17T13:50:36;2.35;;;1.30;;
21297;SDS011;10808;48.010;11.326;2022-09-17T13:53:08;3.45;;;2.00;;
21297;SDS011;10808;48.010;11.326;2022-09-17T13:55:49;1.93;;;1.30;;
21297;SDS011;10808;48.010;11.326;2022-09-17T14:05:53;6.07;;;2.30;;
21297;SDS011;10808;48.010;11.326;2022-09-17T14:08:24;3.58;;;1.63;;
21297;SDS011;10808;48.010;11.326;2022-09-17T14:10:56;3.15;;;1.55;;
21297;SDS011;10808;48.010;11.326;2022-09-17T14:13:37;1.73;;;1.00;;
21297;SDS011;10808;48.010;11.326;2022-09-17T14:16:22;2.75;;;0.90;;
21297;SDS011;10808;48.010;11.326;2022-09-17T14:19:27;2.88;;;1.30;;
21297;SDS011;10808;48.010;11.326;2022-09-17T14:22:22;3.03;;;1.40;;
21297;SDS011;10808;48.010;11.326;2022-09-17T14:24:52;2.28;;;1.10;;
21297;SDS011;10808;48.010;11.326;2022-09-17T14:35:32;3.42;;;1.35;;
21297;SDS011;10808;48.010;11.326;2022-09-17T14:38:18;3.92;;;1.27;;
21297;SDS011;10808;48.010;11.326;2022-09-17T14:43:42;3.88;;;1.30;;
21297;SDS011;10808;48.010;11.326;2022-09-17T14:46:32;2.75;;;1.30;;
21297;SDS011;10808;48.010;11.326;2022-09-17T14:49:14;2.42;;;1.30;;
21297;SDS011;10808;48.010;11.326;2022-09-17T14:51:47;4.28;;;1.13;;
21297;SDS011;10808;48.010;11.326;2022-09-17T14:54:16;3.05;;;0.90;;
21297;SDS011;10808;48.010;11.326;2022-09-17T15:02:01;2.55;;;1.30;;
21297;SDS011;10808;48.010;11.326;2022-09-17T15:04:27;2.45;;;0.90;;
21297;SDS011;10808;48.010;11.326;2022-09-17T15:07:07;3.65;;;0.90;;
21297;SDS011;10808;48.010;11.326;2022-09-17T15:09:34;5.43;;;1.05;;
21297;SDS011;10808;48.010;11.326;2022-09-17T15:12:00;1.10;;;0.60;;
21297;SDS011;10808;48.010;11.326;2022-09-17T15:14:28;2.97;;;0.70;;
21297;SDS011;10808;48.010;11.326;2022-09-17T15:16:57;1.70;;;0.60;;
21297;SDS011;10808;48.010;11.326;2022-09-17T15:19:26;1.42;;;0.65;;
21297;SDS011;10808;48.010;11.326;2022-09-17T15:21:58;0.80;;;0.50;;
21297;SDS011;10808;48.010;11.326;2022-09-17T15:27:25;1.35;;;0.70;;
21297;SDS011;10808;48.010;11.326;2022-09-17T15:30:04;0.77;;;0.70;;
21297;SDS011;10808;48.010;11.326;2022-09-17T15:32:42;1.35;;;0.80;;
21297;SDS011;10808;48.010;11.326;2022-09-17T15:43:03;2.70;;;1.20;;
21297;SDS011;10808;48.010;11.326;2022-09-17T15:45:48;1.65;;;1.10;;
21297;SDS011;10808;48.010;11.326;2022-09-17T15:48:31;3.47;;;1.60;;
21297;SDS011;10808;48.010;11.326;2022-09-17T15:51:02;3.83;;;2.10;;
21297;SDS011;10808;48.010;11.326;2022-09-17T15:53:32;2.50;;;1.20;;
21297;SDS011;10808;48.010;11.326;2022-09-17T15:56:01;2.03;;;1.13;;
21297;SDS011;10808;48.010;11.326;2022-09-17T15:58:57;2.10;;;1.00;;
21297;SDS011;10808;48.010;11.326;2022-09-17T16:01:48;2.20;;;1.10;;
21297;SDS011;10808;48.010;11.326;2022-09-17T16:04:20;2.55;;;1.08;;
21297;SDS011;10808;48.010;11.326;2022-09-17T16:07:25;1.97;;;1.07;;
21297;SDS011;10808;48.010;11.326;2022-09-17T16:09:52;3.35;;;1.10;;
21297;SDS011;10808;48.010;11.326;2022-09-17T16:12:22;3.05;;;1.13;;
21297;SDS011;10808;48.010;11.326;2022-09-17T16:14:51;2.10;;;1.02;;
21297;SDS011;10808;48.010;11.326;2022-09-17T16:17:26;2.20;;;1.00;;
21297;SDS011;10808;48.010;11.326;2022-09-17T16:19:59;3.78;;;1.80;;
21297;SDS011;10808;48.010;11.326;2022-09-17T16:22:30;2.22;;;1.30;;
21297;SDS011;10808;48.010;11.326;2022-09-17T16:24:56;2.58;;;1.25;;
21297;SDS011;10808;48.010;11.326;2022-09-17T16:27:23;2.40;;;1.20;;
21297;SDS011;10808;48.010;11.326;2022-09-17T16:30:04;2.63;;;1.30;;
21297;SDS011;10808;48.010;11.326;2022-09-17T16:32:34;3.30;;;1.52;;
21297;SDS011;10808;48.010;11.326;2022-09-17T16:35:00;2.42;;;1.35;;
21297;SDS011;10808;48.010;11.326;2022-09-17T16:37:26;3.50;;;1.60;;
21297;SDS011;10808;48.010;11.326;2022-09-17T16:39:52;3.65;;;1.40;;
21297;SDS011;10808;48.010;11.326;2022-09-17T16:42:18;2.20;;;1.10;;
21297;SDS011;10808;48.010;11.326;2022-09-17T16:44:44;2.15;;;1.00;;
21297;SDS011;10808;48.010;11.326;2022-09-17T16:47:11;1.23;;;0.70;;
21297;SDS011;10808;48.010;11.326;2022-09-17T16:49:37;1.08;;;0.77;;
21297;SDS011;10808;48.010;11.326;2022-09-17T16:52:03;1.38;;;0.60;;
21297;SDS011;10808;48.010;11.326;2022-09-17T16:54:29;1.25;;;0.60;;
21297;SDS011;10808;48.010;11.326;2022-09-17T16:56:55;1.13;;;0.50;;
21297;SDS011;10808;48.010;11.326;2022-09-17T16:59:21;2.08;;;0.70;;
21297;SDS011;10808;48.010;11.326;2022-09-17T17:01:47;2.00;;;0.85;;
21297;SDS011;10808;48.010;11.326;2022-09-17T17:04:14;1.52;;;0.90;;
21297;SDS011;10808;48.010;11.326;2022-09-17T17:06:40;0.80;;;0.80;;
21297;SDS011;10808;48.010;11.326;2022-09-17T17:09:06;1.67;;;0.70;;
21297;SDS011;10808;48.010;11.326;2022-09-17T17:11:32;1.20;;;0.80;;
21297;SDS011;10808;48.010;11.326;2022-09-17T17:13:59;2.10;;;1.40;;
21297;SDS011;10808;48.010;11.326;2022-09-17T17:16:29;0.75;;;0.60;;
21297;SDS011;10808;48.010;11.326;2022-09-17T17:18:55;1.02;;;0.90;;
21297;SDS011;10808;48.010;11.326;2022-09-17T17:21:22;1.38;;;1.00;;
21297;SDS011;10808;48.010;11.326;2022-09-17T17:23:49;2.60;;;1.30;;
21297;SDS011;10808;48.010;11.326;2022-09-17T17:26:15;1.70;;;0.90;;
21297;SDS011;10808;48.010;11.326;2022-09-17T17:28:41;1.15;;;1.00;;
21297;SDS011;10808;48.010;11.326;2022-09-17T17:31:08;1.20;;;0.80;;
21297;SDS011;10808;48.010;11.326;2022-09-17T17:33:35;1.10;;;0.73;;
21297;SDS011;10808;48.010;11.326;2022-09-17T17:36:02;0.90;;;0.90;;
21297;SDS011;10808;48.010;11.326;2022-09-17T17:38:29;3.38;;;1.40;;
21297;SDS011;10808;48.010;11.326;2022-09-17T17:41:09;3.00;;;1.70;;
21297;SDS011;10808;48.010;11.326;2022-09-17T17:43:36;2.08;;;1.45;;
21297;SDS011;10808;48.010;11.326;2022-09-17T17:46:09;5.15;;;2.28;;
21297;SDS011;10808;48.010;11.326;2022-09-17T17:48:36;2.83;;;1.92;;
21297;SDS011;10808;48.010;11.326;2022-09-17T17:51:03;3.67;;;1.75;;